Time;durP1;ratioP1;P1;durP2;ratioP2;P2;SDS_P1;SDS_P2;PMS_P1;PMS_P2;Temp;Humidity;BMP_temperature;BMP_pressure;BME280_temperature;BME280_humidity;BME280_pressure;Samples;Min_cycle;Max_cycle;Signal;HPM_P1;HPM_P2
2021/09/19 00:00:15;;;;;;;18.88;13.52;;;;;;;16.24;69.81;101678.25;5048121;28;20447;-48
2021/09/19 00:02:41;;;;;;;18.63;13.93;;;;;;;16.19;69.69;101680.88;5042980;28;20082;-49
2021/09/19 00:05:09;;;;;;;18.23;14.10;;;;;;;16.18;69.80;101676.50;5044394;28;20036;-49
2021/09/19 00:07:35;;;;;;;19.88;13.82;;;;;;;16.16;70.03;101680.00;5045643;28;20048;-50
2021/09/19 00:10:00;;;;;;;19.13;13.98;;;;;;;16.15;69.76;101684.41;5046794;28;20488;-49
2021/09/19 00:12:26;;;;;;;19.05;13.85;;;;;;;16.17;69.75;101684.38;5048835;28;20036;-50
2021/09/19 00:14:51;;;;;;;17.42;12.95;;;;;;;16.13;69.82;101678.25;5037389;28;20477;-47
2021/09/19 00:17:17;;;;;;;19.27;13.57;;;;;;;16.09;70.25;101678.22;5046090;28;20052;-51
2021/09/19 00:19:43;;;;;;;19.08;13.55;;;;;;;16.09;70.03;101675.59;5040351;28;20040;-50
2021/09/19 00:22:09;;;;;;;17.95;13.63;;;;;;;15.93;70.69;101684.28;5045262;28;20846;-49
2021/09/19 00:24:34;;;;;;;18.48;14.07;;;;;;;15.88;70.56;101676.38;5045185;28;20051;-52
2021/09/19 00:27:00;;;;;;;21.65;12.77;;;;;;;15.80;70.92;101681.59;5037955;28;20361;-49
2021/09/19 00:29:25;;;;;;;18.23;12.70;;;;;;;15.74;71.19;101683.31;5045131;28;20127;-50
2021/09/19 00:31:50;;;;;;;17.95;13.02;;;;;;;15.65;71.85;101675.41;5021514;28;20041;-47
2021/09/19 00:34:16;;;;;;;18.15;13.30;;;;;;;15.57;71.88;101666.56;5044500;28;20056;-49
2021/09/19 00:36:42;;;;;;;18.05;13.80;;;;;;;15.51;72.04;101674.41;5040542;28;20044;-47
2021/09/19 00:39:08;;;;;;;19.90;13.68;;;;;;;15.62;71.64;101664.84;5019937;28;20071;-47
2021/09/19 00:41:34;;;;;;;21.73;14.07;;;;;;;15.61;71.53;101666.63;5028353;28;20067;-51
2021/09/19 00:44:03;;;;;;;19.35;13.52;;;;;;;15.65;71.57;101663.13;5042626;28;20147;-47
2021/09/19 00:46:29;;;;;;;19.00;13.80;;;;;;;15.62;71.59;101660.47;5040817;28;21368;-47
2021/09/19 00:48:54;;;;;;;21.58;13.85;;;;;;;15.51;72.08;101672.66;5017428;28;20095;-51
2021/09/19 00:51:20;;;;;;;20.25;13.55;;;;;;;15.46;72.08;101668.25;5045923;28;20040;-48
2021/09/19 00:53:45;;;;;;;19.10;13.32;;;;;;;15.39;72.33;101660.31;5047273;28;20059;-50
2021/09/19 00:56:12;;;;;;;19.73;13.63;;;;;;;15.40;72.22;101663.81;5044102;28;20047;-51
2021/09/19 00:58:41;;;;;;;21.15;13.20;;;;;;;15.37;72.57;101663.78;5027157;28;20517;-49
2021/09/19 01:01:07;;;;;;;18.90;13.35;;;;;;;15.34;72.58;101666.41;5022545;28;20056;-49
2021/09/19 01:03:32;;;;;;;20.67;14.02;;;;;;;15.29;72.74;101663.75;5044604;28;20051;-47
2021/09/19 01:05:58;;;;;;;18.65;13.93;;;;;;;15.30;72.50;101657.66;5048101;28;20537;-47
2021/09/19 01:08:23;;;;;;;19.27;13.07;;;;;;;15.27;72.67;101664.63;5047379;28;20048;-49
2021/09/19 01:10:49;;;;;;;21.00;12.93;;;;;;;15.26;72.86;101662.84;5040469;28;20032;-49
2021/09/19 01:13:17;;;;;;;18.88;13.00;;;;;;;15.25;72.89;101661.09;5024634;28;20417;-47
2021/09/19 01:15:43;;;;;;;18.45;13.15;;;;;;;15.12;73.22;101665.41;5043588;28;20802;-50
2021/09/19 01:18:09;;;;;;;18.33;13.18;;;;;;;15.07;73.48;101653.97;5040412;28;20036;-49
2021/09/19 01:20:35;;;;;;;17.50;12.60;;;;;;;15.09;73.35;101656.59;5045232;28;20496;-48
2021/09/19 01:23:09;;;;;;;18.55;12.32;;;;;;;15.10;73.49;101650.50;5036416;28;20151;-48
2021/09/19 01:25:35;;;;;;;17.10;12.50;;;;;;;15.10;73.18;101650.50;5046182;28;20043;-50
2021/09/19 01:28:01;;;;;;;18.30;13.40;;;;;;;15.03;73.39;101642.56;5044012;28;20044;-49
2021/09/19 01:30:26;;;;;;;19.50;13.38;;;;;;;15.02;73.68;101650.41;5043512;28;20106;-50
2021/09/19 01:32:52;;;;;;;18.55;12.82;;;;;;;15.03;73.60;101642.56;5037447;28;20044;-49
2021/09/19 01:35:17;;;;;;;17.33;12.77;;;;;;;15.07;73.60;101638.19;5025409;28;20699;-50
2021/09/19 01:37:43;;;;;;;19.27;13.10;;;;;;;15.04;73.59;101638.19;5043739;28;20118;-51
2021/09/19 01:40:10;;;;;;;19.23;12.85;;;;;;;15.05;73.54;101636.44;5026418;28;20036;-50
2021/09/19 01:42:35;;;;;;;18.25;13.35;;;;;;;15.05;73.54;101631.19;5041450;28;20052;-49
2021/09/19 01:45:00;;;;;;;19.63;13.13;;;;;;;14.99;73.76;101629.41;5039479;28;20226;-52
2021/09/19 01:47:26;;;;;;;18.80;13.00;;;;;;;15.01;73.67;101631.16;5039134;28;20151;-52
2021/09/19 01:49:51;;;;;;;17.90;12.82;;;;;;;14.98;73.78;101627.66;5022602;28;20044;-48
2021/09/19 01:52:19;;;;;;;17.35;12.50;;;;;;;15.03;73.86;101623.31;5048879;28;20032;-48
2021/09/19 01:54:45;;;;;;;18.27;12.93;;;;;;;15.01;73.59;101625.03;5039166;28;20051;-49
2021/09/19 01:57:15;;;;;;;18.02;12.93;;;;;;;14.99;73.91;101624.16;5039995;28;20394;-48
2021/09/19 01:59:40;;;;;;;17.70;12.68;;;;;;;14.94;73.54;101624.09;5044066;28;20064;-50
2021/09/19 02:02:06;;;;;;;20.83;13.57;;;;;;;14.97;73.87;101624.13;5046677;28;20192;-48
2021/09/19 02:04:31;;;;;;;18.25;13.23;;;;;;;14.94;73.94;101631.13;5027334;28;20554;-51
2021/09/19 02:06:57;;;;;;;19.60;13.07;;;;;;;14.90;74.00;101629.31;5037698;28;20488;-47
2021/09/19 02:09:22;;;;;;;18.98;13.07;;;;;;;14.90;73.98;101635.47;5015333;28;20443;-50
2021/09/19 02:11:48;;;;;;;18.67;12.60;;;;;;;14.98;73.77;101628.53;5044714;28;20040;-48
2021/09/19 02:14:13;;;;;;;18.15;12.70;;;;;;;14.89;74.10;101631.06;5043819;28;20470;-48
2021/09/19 02:16:43;;;;;;;19.25;13.32;;;;;;;14.87;74.26;101622.31;5044754;28;20494;-49
2021/09/19 02:19:10;;;;;;;17.60;12.95;;;;;;;14.93;73.76;101618.88;5027219;28;20080;-48
2021/09/19 02:21:36;;;;;;;19.40;13.65;;;;;;;14.92;73.95;101614.47;5044479;28;20163;-50
2021/09/19 02:24:01;;;;;;;20.85;13.90;;;;;;;14.87;74.05;101613.56;5020220;28;20048;-47
2021/09/19 02:26:27;;;;;;;18.95;13.13;;;;;;;14.88;73.87;101610.94;5040248;28;20050;-49
2021/09/19 02:28:52;;;;;;;19.00;13.65;;;;;;;14.85;74.04;101610.91;5036993;28;20089;-52
2021/09/19 02:31:17;;;;;;;17.08;12.88;;;;;;;14.81;74.23;101609.16;5046677;28;20178;-51
2021/09/19 02:33:43;;;;;;;18.65;13.48;;;;;;;14.81;74.21;101606.53;5037122;28;20109;-51
2021/09/19 02:36:08;;;;;;;20.95;14.48;;;;;;;14.81;74.30;101611.78;5040525;28;20051;-49
2021/09/19 02:38:34;;;;;;;18.75;13.30;;;;;;;14.85;74.05;101613.53;5043942;28;20045;-48
2021/09/19 02:40:59;;;;;;;19.92;13.65;;;;;;;14.80;74.09;101610.00;5036418;28;20311;-47
2021/09/19 02:43:24;;;;;;;18.55;13.82;;;;;;;14.76;74.41;101605.59;5044391;28;20573;-47
2021/09/19 02:45:51;;;;;;;19.52;14.27;;;;;;;14.75;74.15;101609.09;5041551;28;20625;-51
2021/09/19 02:48:16;;;;;;;17.92;13.38;;;;;;;14.68;74.44;101612.53;5042188;28;20028;-50
2021/09/19 02:50:41;;;;;;;20.15;13.32;;;;;;;14.67;74.47;101605.53;5041059;28;20440;-49
2021/09/19 02:53:07;;;;;;;21.05;14.07;;;;;;;14.67;74.74;101608.16;5037316;28;21003;-47
2021/09/19 02:55:32;;;;;;;22.73;14.25;;;;;;;14.69;74.65;101603.81;5021938;28;20309;-50
2021/09/19 02:57:58;;;;;;;20.77;13.20;;;;;;;14.69;74.49;101601.19;5024957;28;20041;-48
2021/09/19 03:00:23;;;;;;;18.65;13.32;;;;;;;14.70;74.54;101604.69;5041063;28;20025;-53
2021/09/19 03:02:50;;;;;;;18.80;13.52;;;;;;;14.63;74.53;101602.88;5039018;28;20101;-50
2021/09/19 03:05:15;;;;;;;19.35;13.65;;;;;;;14.58;74.62;101594.94;5049355;28;20071;-49
2021/09/19 03:07:41;;;;;;;20.98;14.48;;;;;;;14.55;74.84;101595.81;5043610;28;20684;-52
2021/09/19 03:10:08;;;;;;;20.67;14.02;;;;;;;14.58;74.76;101597.56;5028414;28;20044;-52
2021/09/19 03:12:33;;;;;;;20.38;14.85;;;;;;;14.56;75.04;101594.06;5045363;28;20156;-51
2021/09/19 03:14:59;;;;;;;21.20;14.80;;;;;;;14.54;75.08;101590.53;5040236;28;20037;-48
2021/09/19 03:17:24;;;;;;;21.83;14.32;;;;;;;14.52;75.34;101595.75;5050995;28;20081;-47
2021/09/19 03:19:49;;;;;;;20.80;14.82;;;;;;;14.53;75.22;101594.91;5044650;28;20109;-47
2021/09/19 03:22:15;;;;;;;21.25;14.77;;;;;;;14.50;75.31;101592.28;5048357;28;20032;-48
2021/09/19 03:24:40;;;;;;;20.63;13.95;;;;;;;14.48;75.06;101594.00;5041686;28;20055;-51
2021/09/19 03:27:06;;;;;;;21.70;14.88;;;;;;;14.47;75.30;101596.59;5040513;28;20390;-48
2021/09/19 03:29:31;;;;;;;26.27;16.42;;;;;;;14.45;75.30;101601.84;5024994;28;20503;-49
2021/09/19 03:31:57;;;;;;;22.75;15.38;;;;;;;14.48;75.26;101600.97;5048271;28;20051;-49
2021/09/19 03:34:22;;;;;;;23.63;16.30;;;;;;;14.45;75.93;101590.47;5047352;28;20177;-51
2021/09/19 03:36:47;;;;;;;22.35;15.48;;;;;;;14.47;75.58;101591.34;5040034;28;20087;-54
2021/09/19 03:39:13;;;;;;;23.25;15.52;;;;;;;14.46;75.57;101589.59;5025395;28;20411;-50
2021/09/19 03:41:38;;;;;;;22.58;15.15;;;;;;;14.41;75.51;101586.03;5045049;28;20861;-47
2021/09/19 03:44:04;;;;;;;26.52;16.50;;;;;;;14.37;75.71;101587.78;5045832;28;20450;-48
2021/09/19 03:46:30;;;;;;;23.73;15.85;;;;;;;14.35;75.65;101589.47;5046879;28;20087;-50
2021/09/19 03:48:55;;;;;;;23.77;15.88;;;;;;;14.37;75.68;101589.47;5039668;28;20552;-50
2021/09/19 03:51:21;;;;;;;23.23;15.05;;;;;;;14.37;75.25;101585.16;5042327;28;20044;-52
2021/09/19 03:53:46;;;;;;;23.35;15.35;;;;;;;14.30;75.51;101585.03;5047511;28;20098;-50
2021/09/19 03:56:12;;;;;;;23.77;15.35;;;;;;;14.33;75.39;101583.34;5043349;28;20442;-53
2021/09/19 03:58:37;;;;;;;26.83;16.50;;;;;;;14.32;75.49;101585.94;5042752;28;20040;-48
2021/09/19 04:01:03;;;;;;;23.75;16.27;;;;;;;14.29;75.65;101583.28;5037963;28;20044;-50
2021/09/19 04:03:28;;;;;;;25.02;15.80;;;;;;;14.26;75.65;101585.88;5047888;28;20044;-48
2021/09/19 04:05:53;;;;;;;21.50;14.27;;;;;;;14.23;75.33;101591.97;5042394;28;20058;-51
2021/09/19 04:08:19;;;;;;;28.00;16.85;;;;;;;14.28;75.40;101594.63;5043522;28;20180;-50
2021/09/19 04:10:45;;;;;;;27.88;17.05;;;;;;;14.31;75.59;101581.56;5038911;28;20132;-54
2021/09/19 04:13:10;;;;;;;25.30;16.52;;;;;;;14.33;75.62;101587.72;5046456;28;20097;-52
2021/09/19 04:15:35;;;;;;;23.10;15.38;;;;;;;14.34;75.22;101574.59;5040962;28;20071;-47
2021/09/19 04:18:01;;;;;;;27.33;17.25;;;;;;;14.33;75.48;101575.47;5045322;28;20064;-49
2021/09/19 04:20:26;;;;;;;26.98;17.33;;;;;;;14.34;75.41;101579.81;5044038;28;20080;-52
2021/09/19 04:22:51;;;;;;;24.08;16.08;;;;;;;14.30;75.02;101575.44;5035842;28;20035;-48
2021/09/19 04:25:17;;;;;;;23.27;14.95;;;;;;;14.28;74.93;101573.63;5044647;28;20049;-49
2021/09/19 04:27:42;;;;;;;26.20;16.02;;;;;;;14.23;75.40;101578.84;5040892;28;20036;-49
2021/09/19 04:30:08;;;;;;;26.25;17.48;;;;;;;14.27;75.66;101577.16;5041127;28;20506;-49
2021/09/19 04:32:35;;;;;;;27.05;17.58;;;;;;;14.25;75.67;101566.66;5044913;28;20090;-50
2021/09/19 04:35:00;;;;;;;27.60;16.73;;;;;;;14.21;75.60;101568.34;5036886;28;20250;-51
2021/09/19 04:37:27;;;;;;;28.73;17.00;;;;;;;14.20;75.59;101565.72;5027144;28;20024;-47
2021/09/19 04:39:52;;;;;;;29.05;17.00;;;;;;;14.20;75.72;101576.22;5046827;28;20090;-50
2021/09/19 04:42:17;;;;;;;25.13;16.08;;;;;;;14.20;75.42;101566.59;5046397;28;20036;-48
2021/09/19 04:44:43;;;;;;;25.80;15.93;;;;;;;14.12;75.64;101575.25;5043623;28;20076;-49
2021/09/19 04:47:08;;;;;;;27.67;17.25;;;;;;;14.04;75.95;101579.53;5041824;28;20489;-47
2021/09/19 04:49:34;;;;;;;27.35;16.38;;;;;;;14.04;76.09;101579.53;5026153;28;20044;-49
2021/09/19 04:51:59;;;;;;;27.02;16.77;;;;;;;14.01;76.04;101579.50;5045045;28;20032;-50
2021/09/19 04:54:25;;;;;;;27.85;17.52;;;;;;;13.97;76.23;101572.47;5042956;28;20253;-48
2021/09/19 04:56:51;;;;;;;27.90;17.52;;;;;;;13.98;76.33;101575.09;5031717;28;20037;-50
2021/09/19 04:59:16;;;;;;;29.10;17.75;;;;;;;14.02;76.38;101574.28;5044489;28;20101;-48
2021/09/19 05:01:41;;;;;;;28.70;17.98;;;;;;;13.98;76.37;101571.59;5040618;28;20049;-49
2021/09/19 05:04:07;;;;;;;30.38;18.33;;;;;;;13.99;76.67;101571.63;5046245;28;20051;-51
2021/09/19 05:06:32;;;;;;;31.55;17.83;;;;;;;13.98;76.39;101572.47;5021400;28;20127;-48
2021/09/19 05:08:57;;;;;;;27.50;17.23;;;;;;;13.99;76.14;101570.75;5033083;28;20068;-48
2021/09/19 05:11:24;;;;;;;28.80;17.65;;;;;;;13.94;76.65;101569.81;5044056;28;20443;-47
2021/09/19 05:13:51;;;;;;;29.15;17.42;;;;;;;13.93;76.42;101574.19;5024154;28;20057;-49
2021/09/19 05:16:16;;;;;;;31.42;17.85;;;;;;;13.94;76.66;101569.81;5026842;28;20504;-47
2021/09/19 05:18:42;;;;;;;33.33;18.08;;;;;;;13.92;76.75;101574.16;5038593;28;20120;-51
2021/09/19 05:21:07;;;;;;;29.90;17.80;;;;;;;13.97;76.31;101575.97;5039100;28;20504;-53
2021/09/19 05:23:32;;;;;;;35.17;19.20;;;;;;;13.96;76.76;101573.34;5049322;28;20048;-49
2021/09/19 05:25:58;;;;;;;27.90;17.45;;;;;;;14.00;76.69;101575.13;5041007;28;20511;-50
2021/09/19 05:28:23;;;;;;;31.75;18.23;;;;;;;13.95;76.76;101569.84;5043055;28;20116;-51
2021/09/19 05:30:51;;;;;;;30.40;18.50;;;;;;;13.97;76.74;101577.69;5036288;28;20094;-49
2021/09/19 05:33:17;;;;;;;26.92;16.63;;;;;;;13.99;76.37;101579.50;5044905;28;20067;-50
2021/09/19 05:35:42;;;;;;;30.67;18.08;;;;;;;13.98;76.48;101577.72;5044157;28;20500;-49
2021/09/19 05:38:08;;;;;;;30.45;17.83;;;;;;;13.99;76.74;101578.59;5042953;28;20020;-47
2021/09/19 05:40:34;;;;;;;30.75;18.08;;;;;;;14.00;76.71;101577.75;5040713;28;20633;-49
2021/09/19 05:43:02;;;;;;;30.67;17.67;;;;;;;14.00;76.74;101576.00;5038009;28;20971;-51
2021/09/19 05:45:28;;;;;;;32.25;18.27;;;;;;;14.01;76.92;101569.03;5043645;28;20117;-54
2021/09/19 05:47:53;;;;;;;33.25;17.30;;;;;;;14.06;76.68;101580.44;5025911;28;20390;-47
2021/09/19 05:50:19;;;;;;;27.13;16.17;;;;;;;14.10;76.50;101584.84;5044155;28;20072;-51
2021/09/19 05:52:44;;;;;;;29.92;18.40;;;;;;;14.19;76.43;101585.81;5036308;28;20048;-48
2021/09/19 05:55:10;;;;;;;30.45;17.75;;;;;;;14.21;76.32;101581.44;5039676;28;20610;-48
2021/09/19 05:57:35;;;;;;;31.33;17.75;;;;;;;14.24;76.48;101585.88;5044974;28;20071;-48
2021/09/19 06:00:00;;;;;;;28.45;17.88;;;;;;;14.41;76.38;101580.78;5042240;28;20087;-48
2021/09/19 06:02:26;;;;;;;26.52;16.42;;;;;;;14.58;76.26;101584.44;5022885;28;20357;-53
2021/09/19 06:04:51;;;;;;;24.35;15.35;;;;;;;14.88;75.47;101592.56;5037269;28;20048;-47
2021/09/19 06:07:17;;;;;;;22.77;15.27;;;;;;;15.30;74.71;101589.34;5039391;28;20310;-47
2021/09/19 06:09:42;;;;;;;18.90;14.20;;;;;;;15.53;72.70;101592.09;5044183;28;20350;-52
2021/09/19 06:12:08;;;;;;;19.55;13.73;;;;;;;15.74;72.31;101589.56;5028178;28;20053;-49
2021/09/19 06:14:34;;;;;;;18.30;13.70;;;;;;;15.99;70.87;101589.63;5026959;28;20040;-48
2021/09/19 06:16:59;;;;;;;18.00;13.80;;;;;;;16.30;69.26;101593.19;5035185;28;20036;-51
2021/09/19 06:19:24;;;;;;;18.80;13.60;;;;;;;16.65;67.30;101585.38;5045440;28;20644;-50
2021/09/19 06:21:50;;;;;;;17.67;13.60;;;;;;;17.03;66.35;101589.72;5043778;28;20056;-52
2021/09/19 06:24:15;;;;;;;17.02;13.48;;;;;;;17.54;65.46;101594.84;5040003;28;20173;-53
2021/09/19 06:26:41;;;;;;;18.95;13.27;;;;;;;17.68;64.26;101595.72;5038664;28;20607;-48
2021/09/19 06:29:06;;;;;;;15.65;12.68;;;;;;;18.13;62.59;101598.09;5034279;28;20515;-51
2021/09/19 06:31:32;;;;;;;18.20;13.02;;;;;;;18.36;62.33;101595.28;5026184;28;20397;-52
2021/09/19 06:33:58;;;;;;;18.27;12.52;;;;;;;18.70;61.31;101595.09;5044868;28;20567;-53
2021/09/19 06:36:24;;;;;;;14.20;11.88;;;;;;;18.75;60.69;101582.69;5040117;28;20036;-50
2021/09/19 06:38:49;;;;;;;15.13;12.20;;;;;;;18.67;60.49;101587.16;5044877;28;20074;-49
2021/09/19 06:41:14;;;;;;;16.13;12.68;;;;;;;18.85;59.89;101581.72;5048836;28;20336;-50
2021/09/19 06:43:40;;;;;;;14.40;11.80;;;;;;;18.88;59.60;101585.22;5046202;28;20190;-52
2021/09/19 06:46:05;;;;;;;15.00;12.73;;;;;;;18.94;60.48;101597.50;5038166;28;20400;-51
2021/09/19 06:48:30;;;;;;;14.40;11.63;;;;;;;19.54;57.55;101595.13;5050889;28;20397;-49
2021/09/19 06:50:56;;;;;;;15.75;11.98;;;;;;;19.44;58.23;101599.63;5047850;28;20382;-51
2021/09/19 06:53:21;;;;;;;15.23;12.02;;;;;;;19.60;57.68;101603.84;5047584;28;20075;-49
2021/09/19 06:55:46;;;;;;;15.60;11.30;;;;;;;19.97;56.34;101600.75;5046084;28;20543;-49
2021/09/19 06:58:12;;;;;;;15.23;11.40;;;;;;;20.07;56.93;101597.94;5048495;28;20051;-48
2021/09/19 07:00:37;;;;;;;14.23;11.13;;;;;;;20.07;56.18;101607.63;5050911;28;20049;-50
2021/09/19 07:03:02;;;;;;;14.68;11.35;;;;;;;19.89;57.23;101602.59;5039540;28;20288;-52
2021/09/19 07:05:28;;;;;;;14.48;11.63;;;;;;;20.00;56.73;101606.88;5048725;28;20452;-52
2021/09/19 07:07:53;;;;;;;14.70;11.18;;;;;;;20.32;56.27;101611.72;5053583;28;20041;-49
2021/09/19 07:10:20;;;;;;;13.45;11.38;;;;;;;20.88;55.22;101605.50;5047331;28;20041;-49
2021/09/19 07:12:45;;;;;;;14.70;10.88;;;;;;;20.93;54.39;101605.41;5042063;28;20388;-56
2021/09/19 07:15:11;;;;;;;14.40;11.25;;;;;;;20.41;56.39;101608.06;5032110;28;20419;-49
2021/09/19 07:17:36;;;;;;;12.90;10.55;;;;;;;21.52;52.77;101608.78;5029840;28;20328;-50
2021/09/19 07:20:03;;;;;;;13.40;10.77;;;;;;;21.24;54.29;101613.72;5048755;28;20040;-48
2021/09/19 07:22:28;;;;;;;12.65;10.45;;;;;;;21.46;53.47;101612.44;5031698;28;20036;-48
2021/09/19 07:24:54;;;;;;;12.88;10.43;;;;;;;22.05;51.33;101612.97;5025022;28;20048;-50
2021/09/19 07:27:19;;;;;;;11.32;9.52;;;;;;;21.89;51.56;101612.41;5044232;28;20048;-49
2021/09/19 07:29:45;;;;;;;14.68;10.25;;;;;;;21.31;54.32;101613.59;5049105;28;20588;-52
2021/09/19 07:32:12;;;;;;;14.65;10.35;;;;;;;20.54;54.89;101613.16;5046874;28;20338;-49
2021/09/19 07:34:39;;;;;;;12.75;10.40;;;;;;;20.00;57.60;101609.53;5045688;28;20063;-48
2021/09/19 07:37:06;;;;;;;14.30;11.15;;;;;;;19.64;58.65;101610.00;5045022;28;20039;-47
2021/09/19 07:39:32;;;;;;;14.38;11.15;;;;;;;19.41;58.91;101611.09;5048045;28;20376;-49
2021/09/19 07:41:57;;;;;;;14.90;11.40;;;;;;;19.06;60.82;101610.59;5048558;28;20131;-47
2021/09/19 07:44:23;;;;;;;15.00;11.45;;;;;;;19.32;61.13;101616.50;5048684;28;20048;-46
2021/09/19 07:46:50;;;;;;;16.30;11.23;;;;;;;19.24;61.07;101617.47;5043844;28;20044;-52
2021/09/19 07:49:20;;;;;;;15.38;10.70;;;;;;;19.33;60.53;101622.66;5009834;28;20711;-50
2021/09/19 07:51:46;;;;;;;14.40;11.10;;;;;;;19.26;60.50;101623.63;5045423;28;20040;-49
2021/09/19 07:54:12;;;;;;;13.68;10.93;;;;;;;19.34;61.01;101619.09;5045784;28;20052;-49
2021/09/19 07:56:37;;;;;;;13.73;10.70;;;;;;;19.31;61.29;101612.09;5046522;28;20044;-47
2021/09/19 07:59:03;;;;;;;12.63;10.05;;;;;;;19.43;60.02;101613.72;5037020;28;20066;-49
2021/09/19 08:01:28;;;;;;;13.68;10.40;;;;;;;19.39;59.38;101614.66;5033240;28;20052;-52
2021/09/19 08:03:53;;;;;;;12.77;10.02;;;;;;;19.13;60.22;101614.94;5042374;28;20482;-51
2021/09/19 08:06:22;;;;;;;13.75;10.80;;;;;;;19.27;61.61;101606.88;5029452;28;20047;-51
2021/09/19 08:08:48;;;;;;;12.70;10.50;;;;;;;19.28;61.98;101613.88;5041467;28;20492;-50
2021/09/19 08:11:13;;;;;;;12.18;9.82;;;;;;;19.34;60.47;101622.63;5026380;28;20328;-48
2021/09/19 08:13:39;;;;;;;12.25;9.73;;;;;;;19.15;60.63;101615.78;5045700;28;20048;-49
2021/09/19 08:16:04;;;;;;;12.20;9.38;;;;;;;19.27;59.63;101599.78;5044737;28;20044;-50
2021/09/19 08:18:30;;;;;;;12.63;10.20;;;;;;;19.49;61.58;101611.06;5046310;28;20114;-51
2021/09/19 08:20:55;;;;;;;14.85;9.70;;;;;;;19.30;60.59;101613.00;5016902;28;20051;-51
2021/09/19 08:23:20;;;;;;;10.63;8.63;;;;;;;19.64;60.10;101612.66;5045080;28;20041;-48
2021/09/19 08:25:46;;;;;;;11.68;9.10;;;;;;;19.76;60.60;101607.22;5046851;28;20044;-49
2021/09/19 08:28:11;;;;;;;12.73;8.68;;;;;;;19.69;59.36;101609.06;5039853;28;20461;-48
2021/09/19 08:30:37;;;;;;;12.95;8.52;;;;;;;19.75;59.36;101602.81;5043052;28;20554;-48
2021/09/19 08:33:02;;;;;;;10.60;8.75;;;;;;;19.26;60.40;101611.28;5038877;28;20086;-46
2021/09/19 08:35:28;;;;;;;10.05;8.05;;;;;;;19.73;59.86;101620.47;5043424;28;20420;-48
2021/09/19 08:37:53;;;;;;;11.40;8.40;;;;;;;19.70;59.01;101615.22;5043224;28;20254;-51
2021/09/19 08:40:19;;;;;;;10.85;7.85;;;;;;;19.83;58.75;101622.09;5034709;28;20032;-49
2021/09/19 08:42:44;;;;;;;10.73;8.13;;;;;;;20.06;57.94;101611.22;5035308;28;20445;-57
2021/09/19 08:45:11;;;;;;;11.30;7.53;;;;;;;20.24;57.62;101614.47;5021027;28;20072;-47
2021/09/19 08:47:36;;;;;;;10.57;8.20;;;;;;;20.26;56.87;101622.38;5040714;28;20045;-48
2021/09/19 08:50:07;;;;;;;9.80;7.45;;;;;;;20.66;57.54;101630.63;5045297;28;20117;-48
2021/09/19 08:52:32;;;;;;;9.32;7.60;;;;;;;20.71;56.29;101628.78;5041416;28;20354;-51
2021/09/19 08:54:58;;;;;;;9.50;7.70;;;;;;;20.55;56.44;101611.38;5038171;28;20049;-47
2021/09/19 08:57:23;;;;;;;10.80;7.55;;;;;;;20.39;57.16;101616.03;5043922;28;20032;-48
2021/09/19 08:59:52;;;;;;;10.30;7.00;;;;;;;20.45;58.23;101613.28;5043469;28;20116;-50
2021/09/19 09:02:20;;;;;;;8.85;6.78;;;;;;;20.49;57.17;101625.56;5029309;28;20120;-48
2021/09/19 09:04:46;;;;;;;9.75;6.78;;;;;;;20.56;57.75;101627.25;5032457;28;20048;-51
2021/09/19 09:07:13;;;;;;;10.57;6.43;;;;;;;20.67;55.48;101633.22;5043079;28;20040;-48
2021/09/19 09:09:51;;;;;;;8.15;6.20;;;;;;;20.74;56.16;101627.88;5023924;28;20164;-47
2021/09/19 09:12:16;;;;;;;8.10;6.00;;;;;;;21.06;55.84;101629.03;5043261;28;20414;-47
2021/09/19 09:14:44;;;;;;;8.55;6.43;;;;;;;20.98;56.25;101630.94;5042391;28;20119;-47
2021/09/19 09:17:29;;;;;;;7.78;6.53;;;;;;;21.01;55.39;101636.22;5031151;28;20048;-49
2021/09/19 09:19:56;;;;;;;9.32;6.60;;;;;;;20.77;55.78;101627.78;5047127;28;20087;-49
2021/09/19 09:22:24;;;;;;;11.30;7.07;;;;;;;20.77;55.38;101628.69;5042986;28;20087;-48
2021/09/19 09:25:15;;;;;;;8.82;6.80;;;;;;;21.11;54.92;101628.06;5037633;28;20048;-52
2021/09/19 09:27:42;;;;;;;7.80;6.70;;;;;;;21.20;56.10;101628.84;5019283;28;20135;-47
2021/09/19 09:30:20;;;;;;;12.25;7.70;;;;;;;20.82;56.58;101629.47;5042425;28;20532;-47
2021/09/19 09:33:03;;;;;;;10.20;7.20;;;;;;;21.08;55.09;101636.09;5034201;28;20147;-51
2021/09/19 09:35:33;;;;;;;9.05;7.38;;;;;;;20.96;56.58;101632.78;5044477;28;20147;-47
2021/09/19 09:37:59;;;;;;;9.05;7.38;;;;;;;20.99;56.03;101638.00;5048333;28;20511;-50
2021/09/19 09:40:29;;;;;;;10.88;7.13;;;;;;;21.04;55.56;101640.59;5043493;28;20209;-47
2021/09/19 09:43:01;;;;;;;7.80;6.88;;;;;;;20.96;56.52;101637.19;5031747;28;20052;-50
2021/09/19 09:45:26;;;;;;;8.57;6.80;;;;;;;21.13;55.51;101643.06;5022275;28;20041;-46
2021/09/19 09:47:52;;;;;;;9.77;7.00;;;;;;;21.28;56.04;101647.25;5045364;28;20036;-49
2021/09/19 09:50:24;;;;;;;7.60;6.15;;;;;;;21.49;54.04;101638.88;5043988;28;20036;-47
2021/09/19 09:52:51;;;;;;;7.47;6.18;;;;;;;21.71;54.31;101642.00;5018929;28;20041;-48
2021/09/19 09:55:16;;;;;;;7.60;6.30;;;;;;;21.74;54.71;101641.91;5041808;28;20036;-49
2021/09/19 09:58:01;;;;;;;8.07;6.30;;;;;;;21.72;53.06;101636.63;5022467;28;20036;-47
2021/09/19 10:00:27;;;;;;;7.78;6.50;;;;;;;22.02;54.76;101639.59;5041556;28;20036;-48
2021/09/19 10:02:52;;;;;;;8.70;7.20;;;;;;;21.56;55.06;101640.50;5033577;28;20040;-52
2021/09/19 10:05:21;;;;;;;10.98;7.10;;;;;;;21.58;53.68;101646.69;5041380;28;20071;-48
2021/09/19 10:07:47;;;;;;;9.95;7.30;;;;;;;21.36;54.38;101647.97;5041660;28;20044;-47
2021/09/19 10:10:15;;;;;;;9.55;7.03;;;;;;;21.20;54.98;101644.75;5045898;28;20036;-47
2021/09/19 10:12:41;;;;;;;10.88;6.60;;;;;;;21.25;54.52;101644.66;5036103;28;20261;-49
2021/09/19 10:15:08;;;;;;;9.27;7.07;;;;;;;21.31;56.34;101640.13;5036464;28;20274;-49
2021/09/19 10:17:34;;;;;;;8.80;6.63;;;;;;;21.62;54.13;101639.50;5041820;28;20064;-48
2021/09/19 10:20:05;;;;;;;8.57;6.82;;;;;;;21.65;54.60;101642.13;5039762;28;20713;-48
2021/09/19 10:22:35;;;;;;;9.23;7.15;;;;;;;21.53;54.87;101635.25;5027915;28;20036;-50
2021/09/19 10:25:00;;;;;;;9.63;7.82;;;;;;;21.63;54.06;101639.50;5033715;28;20460;-48
2021/09/19 10:27:31;;;;;;;9.27;7.70;;;;;;;21.05;55.62;101629.94;5038049;28;20044;-47
2021/09/19 10:30:07;;;;;;;19.58;7.32;;;;;;;21.39;55.19;101624.06;5040296;28;20029;-47
2021/09/19 10:32:39;;;;;;;8.45;7.20;;;;;;;21.46;55.01;101623.03;5035257;28;20507;-51
2021/09/19 10:35:18;;;;;;;9.20;7.30;;;;;;;21.60;53.86;101618.31;5038189;28;20666;-46
2021/09/19 10:38:04;;;;;;;9.13;7.60;;;;;;;21.19;55.45;101624.44;5043255;28;20521;-46
2021/09/19 10:40:42;;;;;;;11.10;7.85;;;;;;;21.44;54.34;101616.88;5039426;28;20107;-49
2021/09/19 10:43:15;;;;;;;10.70;7.78;;;;;;;21.53;54.93;101610.53;5038533;28;20060;-47
2021/09/19 10:45:42;;;;;;;9.60;7.78;;;;;;;21.47;54.51;101615.97;5037174;28;20241;-47
2021/09/19 10:48:29;;;;;;;11.63;7.70;;;;;;;21.57;53.37;101620.16;5045366;28;20035;-49
2021/09/19 10:51:06;;;;;;;10.70;7.75;;;;;;;21.42;54.98;101616.03;5029230;28;20071;-46
2021/09/19 10:53:32;;;;;;;8.82;7.45;;;;;;;21.67;53.54;101621.72;5039201;28;20097;-47
2021/09/19 10:56:03;;;;;;;11.25;8.15;;;;;;;21.55;54.26;101611.34;5017687;28;20048;-49
2021/09/19 10:58:30;;;;;;;8.30;6.57;;;;;;;21.73;54.66;101613.63;5041633;28;20036;-53
2021/09/19 11:01:19;;;;;;;8.80;7.00;;;;;;;21.86;53.28;101612.47;5034043;28;20049;-50
2021/09/19 11:03:45;;;;;;;9.38;6.65;;;;;;;22.01;54.79;101611.31;5041213;28;20228;-49
2021/09/19 11:06:43;;;;;;;8.75;7.15;;;;;;;21.99;55.15;101615.75;5023466;28;20041;-46
2021/09/19 11:09:23;;;;;;;8.50;6.57;;;;;;;22.02;54.28;101618.34;5038016;28;20052;-48